Temp: 21.6°C   Baro: 1020.1mb
  Wind: 4.0mph   Dir: SSW (192°)
  Rain: 0.0mm (0.0mm/hr)
  Solar: 645W/m2  Hum: 66%
 
Cotswold Observatory Historical Data
 
Daily Summary for July 21, 2019 Units:  Metric    English   Both
Next Day »
Daily Weekly Monthly Yearly Custom
  Current: High: Low: Average:
Temperature: 21.4 °C 21.4 °C 13.2 °C 17.1 °C
Dew Point: 14.8 °C 15.8 °C 11.9 °C 13.7 °C
Humidity: 66% 93% 66% 81%
Wind Speed: 4.7km/h 20.9km/h 0.0km/h 4.9km/h
Wind Gust: 11.3km/h 27.4km/h - -
Wind directionSSW - - SW
Pressure: 1020.2 hPa 1020.5 hPa 1016.1 hPa -
Precipitation: 0.0 mm      
Historical Graphs
 
 
Tabular Data for July 21, 2019
Time Temperature Dew Point Pressure Wind direction Wind Speed Wind Gust Humidity Rainfall Rate (Hourly) solar
00:04 14.8 °C 12.3 °C 1016.1 hPa ESE 6.4 km/h 6.4 km/h 85% 0.0 mm 0.00 W/m2
00:09 14.7 °C 12.4 °C 1016.1 hPa Calm     86% 0.0 mm 0.00 W/m2
00:14 14.6 °C 12.3 °C 1016.1 hPa Calm     86% 0.0 mm 0.00 W/m2
00:19 14.6 °C 12.5 °C 1016.1 hPa Calm     87% 0.0 mm 0.00 W/m2
00:24 14.5 °C 12.4 °C 1016.1 hPa Calm   1.6 km/h 87% 0.0 mm 0.00 W/m2
00:29 14.4 °C 12.3 °C 1016.5 hPa Calm     87% 0.0 mm 0.00 W/m2
00:34 14.3 °C 12.2 °C 1016.5 hPa SE 3.2 km/h 4.8 km/h 87% 0.0 mm 0.00 W/m2
00:39 14.3 °C 12.3 °C 1016.5 hPa SSE 1.4 km/h 4.8 km/h 88% 0.0 mm 0.00 W/m2
00:44 14.3 °C 12.3 °C 1016.5 hPa Calm   4.8 km/h 88% 0.0 mm 0.00 W/m2
00:49 14.3 °C 12.3 °C 1016.5 hPa Calm   4.8 km/h 88% 0.0 mm 0.00 W/m2
00:54 14.3 °C 12.3 °C 1016.5 hPa Calm     88% 0.0 mm 0.00 W/m2
00:59 14.3 °C 12.3 °C 1016.5 hPa Calm     88% 0.0 mm 0.00 W/m2
01:04 14.3 °C 12.5 °C 1016.5 hPa Calm     89% 0.0 mm 0.00 W/m2
01:09 14.2 °C 12.4 °C 1016.5 hPa Calm     89% 0.0 mm 0.00 W/m2
01:14 14.1 °C 12.3 °C 1016.5 hPa Calm   3.2 km/h 89% 0.0 mm 0.00 W/m2
01:19 14.1 °C 12.3 °C 1016.5 hPa Calm     89% 0.0 mm 0.00 W/m2
01:24 14.2 °C 12.6 °C 1016.8 hPa Calm   4.8 km/h 90% 0.0 mm 0.00 W/m2
01:29 14.1 °C 12.5 °C 1016.8 hPa Calm     90% 0.0 mm 0.00 W/m2
01:34 14.1 °C 12.3 °C 1016.8 hPa Calm   4.8 km/h 89% 0.0 mm 0.00 W/m2
01:39 14.0 °C 12.4 °C 1016.8 hPa Calm     90% 0.0 mm 0.00 W/m2
01:44 13.9 °C 12.3 °C 1016.8 hPa Calm     90% 0.0 mm 0.00 W/m2
01:49 13.8 °C 12.2 °C 1016.8 hPa Calm     90% 0.0 mm 0.00 W/m2
01:54 13.8 °C 12.2 °C 1016.8 hPa Calm     90% 0.0 mm 0.00 W/m2
01:59 13.8 °C 12.2 °C 1016.8 hPa Calm     90% 0.0 mm 0.00 W/m2
02:04 13.7 °C 12.1 °C 1017.2 hPa Calm     90% 0.0 mm 0.00 W/m2
02:09 13.7 °C 12.3 °C 1017.2 hPa Calm     91% 0.0 mm 0.00 W/m2
02:14 13.7 °C 12.3 °C 1017.2 hPa Calm     91% 0.0 mm 0.00 W/m2
02:19 13.6 °C 12.2 °C 1017.2 hPa Calm     91% 0.0 mm 0.00 W/m2
02:24 13.6 °C 12.2 °C 1016.8 hPa Calm     91% 0.0 mm 0.00 W/m2
02:29 13.6 °C 12.2 °C 1016.8 hPa Calm     91% 0.0 mm 0.00 W/m2
02:34 13.5 °C 12.1 °C 1017.2 hPa Calm     91% 0.0 mm 0.00 W/m2
02:39 13.4 °C 12.0 °C 1017.2 hPa Calm     91% 0.0 mm 0.00 W/m2
02:44 13.4 °C 12.0 °C 1017.2 hPa Calm     91% 0.0 mm 0.00 W/m2
02:49 13.3 °C 11.9 °C 1016.8 hPa Calm     91% 0.0 mm 0.00 W/m2
02:54 13.3 °C 11.9 °C 1016.8 hPa Calm     91% 0.0 mm 0.00 W/m2
02:59 13.3 °C 12.0 °C 1016.8 hPa Calm     92% 0.0 mm 0.00 W/m2
03:04 13.2 °C 11.9 °C 1016.8 hPa Calm     92% 0.0 mm 0.00 W/m2
03:09 13.2 °C 11.9 °C 1016.8 hPa Calm     92% 0.0 mm 0.00 W/m2
03:14 13.2 °C 11.9 °C 1017.2 hPa Calm     92% 0.0 mm 0.00 W/m2
03:19 13.2 °C 11.9 °C 1017.2 hPa Calm     92% 0.0 mm 0.00 W/m2
03:24 13.2 °C 11.9 °C 1017.2 hPa Calm     92% 0.0 mm 0.00 W/m2
03:29 13.3 °C 12.2 °C 1017.2 hPa SW 3.2 km/h 3.2 km/h 93% 0.0 mm 0.00 W/m2
03:34 13.5 °C 12.4 °C 1017.2 hPa Calm     93% 0.0 mm 0.00 W/m2
03:39 13.7 °C 12.6 °C 1017.2 hPa SW 1.4 km/h 6.4 km/h 93% 0.0 mm 0.00 W/m2
03:44 13.8 °C 12.7 °C 1017.2 hPa SW 1.4 km/h 4.8 km/h 93% 0.0 mm 0.00 W/m2
03:49 13.9 °C 12.8 °C 1017.2 hPa SW 3.2 km/h 8.0 km/h 93% 0.0 mm 0.00 W/m2
03:54 13.9 °C 12.6 °C 1017.2 hPa Calm   4.8 km/h 92% 0.0 mm 0.00 W/m2
03:59 14.0 °C 12.7 °C 1017.2 hPa Calm   4.8 km/h 92% 0.0 mm 0.00 W/m2
04:04 14.1 °C 12.8 °C 1017.2 hPa SW 8.0 km/h 8.0 km/h 92% 0.0 mm 0.00 W/m2
04:09 14.2 °C 12.9 °C 1017.2 hPa Calm   1.6 km/h 92% 0.0 mm 0.00 W/m2
04:14 14.2 °C 12.9 °C 1017.2 hPa Calm     92% 0.0 mm 0.00 W/m2
04:19 14.2 °C 12.8 °C 1017.2 hPa Calm     91% 0.0 mm 0.00 W/m2
04:24 14.3 °C 12.9 °C 1017.2 hPa Calm     91% 0.0 mm 0.00 W/m2
04:29 14.3 °C 12.9 °C 1017.2 hPa Calm   1.6 km/h 91% 0.0 mm 0.00 W/m2
04:34 14.3 °C 12.9 °C 1017.5 hPa Calm   4.8 km/h 91% 0.0 mm 0.00 W/m2
04:39 14.3 °C 12.9 °C 1017.5 hPa Calm   4.8 km/h 91% 0.0 mm 0.00 W/m2
04:44 14.4 °C 12.8 °C 1017.5 hPa Calm   3.2 km/h 90% 0.0 mm 0.00 W/m2
04:49 14.4 °C 12.8 °C 1017.5 hPa Calm   3.2 km/h 90% 0.0 mm 0.00 W/m2
04:54 14.4 °C 12.8 °C 1017.5 hPa Calm   1.6 km/h 90% 0.0 mm 0.00 W/m2
04:59 14.4 °C 12.6 °C 1017.5 hPa WSW 3.2 km/h 4.8 km/h 89% 0.0 mm 0.00 W/m2
05:04 14.4 °C 12.6 °C 1017.5 hPa Calm     89% 0.0 mm 0.00 W/m2
05:09 14.5 °C 12.7 °C 1017.8 hPa WSW 4.7 km/h 4.8 km/h 89% 0.0 mm 0.00 W/m2
05:14 14.5 °C 12.7 °C 1017.8 hPa SW 1.4 km/h 9.7 km/h 89% 0.0 mm 0.00 W/m2
05:19 14.6 °C 12.8 °C 1017.8 hPa WSW 3.2 km/h 8.0 km/h 89% 0.0 mm 0.00 W/m2
05:24 14.7 °C 12.9 °C 1017.8 hPa WSW 4.7 km/h 12.9 km/h 89% 0.0 mm 5.00 W/m2
05:29 14.7 °C 12.9 °C 1017.8 hPa WSW 3.2 km/h 8.0 km/h 89% 0.0 mm 7.00 W/m2
05:34 14.7 °C 12.7 °C 1017.8 hPa WSW 11.3 km/h 11.3 km/h 88% 0.0 mm 11.00 W/m2
05:39 14.7 °C 12.7 °C 1017.8 hPa SW 4.7 km/h 8.0 km/h 88% 0.0 mm 14.00 W/m2
05:44 14.7 °C 12.7 °C 1017.8 hPa Calm     88% 0.0 mm 16.00 W/m2
05:49 14.7 °C 12.7 °C 1018.2 hPa SSW 4.7 km/h 8.0 km/h 88% 0.0 mm 23.00 W/m2
05:54 14.8 °C 12.8 °C 1018.2 hPa SW 6.4 km/h 8.0 km/h 88% 0.0 mm 21.00 W/m2
05:59 14.8 °C 12.8 °C 1018.2 hPa Calm     88% 0.0 mm 25.00 W/m2
06:04 14.8 °C 12.8 °C 1018.2 hPa Calm   8.0 km/h 88% 0.0 mm 32.00 W/m2
06:09 14.8 °C 12.8 °C 1018.5 hPa Calm   1.6 km/h 88% 0.0 mm 35.00 W/m2
06:14 14.8 °C 12.8 °C 1018.5 hPa Calm     88% 0.0 mm 39.00 W/m2
06:19 14.8 °C 12.8 °C 1018.5 hPa Calm   1.6 km/h 88% 0.0 mm 42.00 W/m2
06:24 14.9 °C 12.9 °C 1018.5 hPa Calm     88% 0.0 mm 53.00 W/m2
06:29 14.9 °C 12.9 °C 1018.5 hPa Calm     88% 0.0 mm 56.00 W/m2
06:34 15.0 °C 13.0 °C 1018.5 hPa Calm   3.2 km/h 88% 0.0 mm 67.00 W/m2
06:39 15.1 °C 13.1 °C 1018.5 hPa Calm   8.0 km/h 88% 0.0 mm 56.00 W/m2
06:44 15.2 °C 13.2 °C 1018.5 hPa Calm     88% 0.0 mm 47.00 W/m2
06:49 15.2 °C 13.2 °C 1018.8 hPa Calm     88% 0.0 mm 46.00 W/m2
06:54 15.3 °C 13.3 °C 1018.8 hPa WSW 6.4 km/h 6.4 km/h 88% 0.0 mm 53.00 W/m2
06:59 15.3 °C 13.3 °C 1018.8 hPa Calm   1.6 km/h 88% 0.0 mm 54.00 W/m2
07:04 15.3 °C 13.3 °C 1018.8 hPa Calm   6.4 km/h 88% 0.0 mm 65.00 W/m2
07:09 15.4 °C 13.4 °C 1018.8 hPa SW 6.4 km/h 8.0 km/h 88% 0.0 mm 77.00 W/m2
07:14 15.4 °C 13.4 °C 1018.8 hPa South 9.7 km/h 11.3 km/h 88% 0.0 mm 79.00 W/m2
07:19 15.4 °C 13.4 °C 1018.8 hPa SW 1.4 km/h 11.3 km/h 88% 0.0 mm 97.00 W/m2
07:24 15.5 °C 13.5 °C 1018.8 hPa WSW 13.0 km/h 14.5 km/h 88% 0.0 mm 116.00 W/m2
07:29 15.6 °C 13.6 °C 1018.8 hPa WSW 3.2 km/h 9.7 km/h 88% 0.0 mm 128.00 W/m2
07:34 15.7 °C 13.7 °C 1018.8 hPa SSW 1.4 km/h 14.5 km/h 88% 0.0 mm 229.00 W/m2
07:39 15.8 °C 13.8 °C 1018.8 hPa SSW 4.7 km/h 12.9 km/h 88% 0.0 mm 264.00 W/m2
07:44 16.0 °C 14.0 °C 1018.8 hPa SSW 17.7 km/h 17.7 km/h 88% 0.0 mm 288.00 W/m2
07:49 16.2 °C 14.0 °C 1018.8 hPa West 9.7 km/h 11.3 km/h 87% 0.0 mm 301.00 W/m2
07:54 16.4 °C 14.1 °C 1018.8 hPa WSW 6.4 km/h 20.9 km/h 86% 0.0 mm 343.00 W/m2
07:59 16.6 °C 14.2 °C 1018.8 hPa SW 6.4 km/h 11.3 km/h 86% 0.0 mm 359.00 W/m2
08:04 16.8 °C 14.3 °C 1018.8 hPa WSW 6.4 km/h 9.7 km/h 85% 0.0 mm 374.00 W/m2
08:09 16.9 °C 14.2 °C 1018.8 hPa West 14.5 km/h 14.5 km/h 84% 0.0 mm 394.00 W/m2
08:14 17.0 °C 14.1 °C 1019.2 hPa West 3.2 km/h 14.5 km/h 83% 0.0 mm 383.00 W/m2
08:19 17.2 °C 14.3 °C 1019.2 hPa West 13.0 km/h 12.9 km/h 83% 0.0 mm 527.00 W/m2
08:24 17.3 °C 14.2 °C 1019.2 hPa South 7.9 km/h 11.3 km/h 82% 0.0 mm 387.00 W/m2
08:29 17.3 °C 14.2 °C 1019.2 hPa WSW 7.9 km/h 11.3 km/h 82% 0.0 mm 311.00 W/m2
08:34 17.4 °C 14.5 °C 1019.2 hPa Calm   8.0 km/h 83% 0.0 mm 411.00 W/m2
08:39 17.7 °C 14.4 °C 1019.2 hPa SW 6.4 km/h 12.9 km/h 81% 0.0 mm 656.00 W/m2
08:44 17.8 °C 14.5 °C 1019.5 hPa SSW 3.2 km/h 12.9 km/h 81% 0.0 mm 548.00 W/m2
08:49 18.1 °C 14.6 °C 1019.5 hPa SW 6.4 km/h 16.1 km/h 80% 0.0 mm 297.00 W/m2
08:54 18.2 °C 14.5 °C 1019.5 hPa SW 6.4 km/h 16.1 km/h 79% 0.0 mm 267.00 W/m2
08:59 18.1 °C 14.4 °C 1019.5 hPa SSW 4.7 km/h 9.7 km/h 79% 0.0 mm 301.00 W/m2
09:04 18.0 °C 14.3 °C 1019.5 hPa SW 3.2 km/h 16.1 km/h 79% 0.0 mm 318.00 W/m2
09:09 18.0 °C 14.3 °C 1019.5 hPa SSE 4.7 km/h 11.3 km/h 79% 0.0 mm 385.00 W/m2
09:14 18.1 °C 14.4 °C 1019.5 hPa SW 7.9 km/h 14.5 km/h 79% 0.0 mm 353.00 W/m2
09:19 18.3 °C 14.4 °C 1019.5 hPa West 6.4 km/h 14.5 km/h 78% 0.0 mm 279.00 W/m2
09:24 18.3 °C 14.4 °C 1019.5 hPa WSW 4.7 km/h 17.7 km/h 78% 0.0 mm 271.00 W/m2
09:29 18.4 °C 14.5 °C 1019.5 hPa WNW 6.4 km/h 9.7 km/h 78% 0.0 mm 585.00 W/m2
09:34 18.6 °C 14.7 °C 1019.5 hPa West 6.4 km/h 14.5 km/h 78% 0.0 mm 563.00 W/m2
09:39 18.7 °C 14.4 °C 1019.5 hPa West 6.4 km/h 16.1 km/h 76% 0.0 mm 441.00 W/m2
09:44 18.8 °C 14.5 °C 1019.5 hPa WNW 6.4 km/h 17.7 km/h 76% 0.0 mm 452.00 W/m2
09:49 18.8 °C 14.3 °C 1019.5 hPa WNW 9.7 km/h 12.9 km/h 75% 0.0 mm 288.00 W/m2
09:54 18.9 °C 14.4 °C 1019.9 hPa WSW 14.5 km/h 14.5 km/h 75% 0.0 mm 267.00 W/m2
09:59 19.1 °C 14.8 °C 1019.9 hPa SW 4.7 km/h 4.8 km/h 76% 0.0 mm 283.00 W/m2
10:04 19.2 °C 14.7 °C 1019.9 hPa SW 4.7 km/h 12.9 km/h 75% 0.0 mm 380.00 W/m2
10:09 19.3 °C 14.5 °C 1019.9 hPa WSW 13.0 km/h 12.9 km/h 74% 0.0 mm 374.00 W/m2
10:14 19.4 °C 14.6 °C 1019.9 hPa SSW 9.7 km/h 12.9 km/h 74% 0.0 mm 471.00 W/m2
10:19 19.6 °C 14.4 °C 1019.5 hPa West 4.7 km/h 17.7 km/h 72% 0.0 mm 459.00 W/m2
10:24 19.4 °C 14.2 °C 1019.9 hPa SSW 6.4 km/h 14.5 km/h 72% 0.0 mm 422.00 W/m2
10:29 19.3 °C 14.3 °C 1019.9 hPa Calm   4.8 km/h 73% 0.0 mm 350.00 W/m2
10:34 19.3 °C 13.9 °C 1019.5 hPa WSW 3.2 km/h 8.0 km/h 71% 0.0 mm 327.00 W/m2
10:39 19.3 °C 13.7 °C 1019.9 hPa SSW 11.1 km/h 19.3 km/h 70% 0.0 mm 413.00 W/m2
10:44 19.4 °C 13.8 °C 1019.9 hPa SW 7.9 km/h 14.5 km/h 70% 0.0 mm 403.00 W/m2
10:49 19.4 °C 13.6 °C 1019.9 hPa West 11.1 km/h 17.7 km/h 69% 0.0 mm 450.00 W/m2
10:54 19.4 °C 13.8 °C 1019.9 hPa SSW 4.7 km/h 17.7 km/h 70% 0.0 mm 392.00 W/m2
10:59 19.6 °C 14.0 °C 1019.9 hPa SSW 7.9 km/h 12.9 km/h 70% 0.0 mm 425.00 W/m2
11:04 19.6 °C 13.8 °C 1019.9 hPa WSW 9.7 km/h 17.7 km/h 69% 0.0 mm 512.00 W/m2
11:09 19.6 °C 13.5 °C 1020.2 hPa SW 11.1 km/h 16.1 km/h 68% 0.0 mm 519.00 W/m2
11:14 19.8 °C 13.9 °C 1020.2 hPa West 11.1 km/h 19.3 km/h 69% 0.0 mm 529.00 W/m2
11:19 19.8 °C 13.5 °C 1020.2 hPa WSW 6.4 km/h 16.1 km/h 67% 0.0 mm 380.00 W/m2
11:24 19.7 °C 13.9 °C 1020.5 hPa SW 9.7 km/h 11.3 km/h 69% 0.0 mm 281.00 W/m2
11:29 19.8 °C 13.9 °C 1020.5 hPa SW 6.4 km/h 20.9 km/h 69% 0.0 mm 271.00 W/m2
11:34 19.8 °C 13.9 °C 1020.5 hPa WSW 7.9 km/h 17.7 km/h 69% 0.0 mm 285.00 W/m2
11:39 19.7 °C 14.3 °C 1020.5 hPa WSW 4.7 km/h 9.7 km/h 71% 0.0 mm 248.00 W/m2
11:44 19.7 °C 14.3 °C 1020.5 hPa WSW 4.7 km/h 17.7 km/h 71% 0.0 mm 230.00 W/m2
11:49 19.7 °C 14.3 °C 1020.5 hPa SW 3.2 km/h 11.3 km/h 71% 0.0 mm 241.00 W/m2
11:54 19.8 °C 14.4 °C 1020.5 hPa SSW 9.7 km/h 17.7 km/h 71% 0.0 mm 352.00 W/m2
11:59 19.8 °C 13.9 °C 1020.2 hPa WSW 3.2 km/h 16.1 km/h 69% 0.0 mm 295.00 W/m2
12:04 19.9 °C 14.3 °C 1020.2 hPa South 6.4 km/h 11.3 km/h 70% 0.0 mm 297.00 W/m2
12:09 19.7 °C 15.1 °C 1020.5 hPa South 17.7 km/h 22.5 km/h 75% 0.0 mm 322.00 W/m2
12:14 19.0 °C 15.1 °C 1020.5 hPa WSW 9.7 km/h 19.3 km/h 78% 0.0 mm 262.00 W/m2
12:19 18.6 °C 14.9 °C 1020.5 hPa SSW 14.3 km/h 25.7 km/h 79% 0.0 mm 223.00 W/m2
12:24 18.2 °C 14.9 °C 1020.5 hPa SSW 6.4 km/h 19.3 km/h 81% 0.0 mm 411.00 W/m2
12:29 18.3 °C 15.2 °C 1020.5 hPa SSW 4.7 km/h 22.5 km/h 82% 0.0 mm 276.00 W/m2
12:34 18.5 °C 15.4 °C 1020.5 hPa SE 4.7 km/h 12.9 km/h 82% 0.0 mm 461.00 W/m2
12:39 18.9 °C 15.4 °C 1020.2 hPa SW 14.3 km/h 17.7 km/h 80% 0.0 mm 394.00 W/m2
12:44 19.3 °C 15.6 °C 1020.2 hPa SW 1.4 km/h 12.9 km/h 79% 0.0 mm 387.00 W/m2
12:49 19.7 °C 15.6 °C 1020.2 hPa SSW 9.7 km/h 19.3 km/h 77% 0.0 mm 287.00 W/m2
12:54 19.9 °C 15.5 °C 1020.2 hPa SSW 6.4 km/h 9.7 km/h 76% 0.0 mm 399.00 W/m2
12:59 20.1 °C 15.5 °C 1020.2 hPa WSW 7.9 km/h 22.5 km/h 75% 0.0 mm 343.00 W/m2
13:04 20.0 °C 15.2 °C 1020.2 hPa WSW 6.4 km/h 16.1 km/h 74% 0.0 mm 327.00 W/m2
13:09 20.1 °C 15.3 °C 1020.2 hPa WSW 11.1 km/h 19.3 km/h 74% 0.0 mm 1027.00 W/m2
13:14 20.3 °C 15.5 °C 1020.2 hPa WSW 19.5 km/h 19.3 km/h 74% 0.0 mm 768.00 W/m2
13:19 20.8 °C 15.6 °C 1020.2 hPa South 14.3 km/h 19.3 km/h 72% 0.0 mm 909.00 W/m2
13:24 21.1 °C 15.6 °C 1020.2 hPa South 1.4 km/h 20.9 km/h 71% 0.0 mm 1014.00 W/m2
13:29 21.2 °C 15.5 °C 1020.2 hPa WSW 6.4 km/h 16.1 km/h 70% 0.0 mm 255.00 W/m2
13:34 21.1 °C 15.4 °C 1020.5 hPa WSW 9.7 km/h 11.3 km/h 70% 0.0 mm 304.00 W/m2
13:39 20.9 °C 15.2 °C 1020.5 hPa West 9.7 km/h 19.3 km/h 70% 0.0 mm 371.00 W/m2
13:44 20.7 °C 15.5 °C 1020.2 hPa West 6.4 km/h 16.1 km/h 72% 0.0 mm 490.00 W/m2
13:49 20.8 °C 15.6 °C 1020.2 hPa South 4.7 km/h 17.7 km/h 72% 0.0 mm 536.00 W/m2
13:54 20.8 °C 15.6 °C 1020.2 hPa WSW 11.1 km/h 22.5 km/h 72% 0.0 mm 390.00 W/m2
13:59 20.8 °C 15.8 °C 1020.2 hPa WNW 14.3 km/h 19.3 km/h 73% 0.0 mm 294.00 W/m2
14:04 20.9 °C 15.7 °C 1020.2 hPa SSW 13.0 km/h 19.3 km/h 72% 0.0 mm 411.00 W/m2
14:09 20.8 °C 15.6 °C 1020.2 hPa South 7.9 km/h 17.7 km/h 72% 0.0 mm 329.00 W/m2
14:14 20.8 °C 15.8 °C 1020.2 hPa SW 9.7 km/h 17.7 km/h 73% 0.0 mm 311.00 W/m2
14:19 20.8 °C 15.8 °C 1020.2 hPa SW 6.4 km/h 14.5 km/h 73% 0.0 mm 494.00 W/m2
14:24 20.9 °C 15.7 °C 1020.2 hPa SSW 6.4 km/h 16.1 km/h 72% 0.0 mm 448.00 W/m2
14:29 20.9 °C 15.4 °C 1020.2 hPa SSW 4.7 km/h 16.1 km/h 71% 0.0 mm 496.00 W/m2
14:34 21.1 °C 15.6 °C 1020.2 hPa SSW 3.2 km/h 16.1 km/h 71% 0.0 mm 353.00 W/m2
14:39 21.2 °C 15.3 °C 1020.2 hPa SW 4.7 km/h 11.3 km/h 69% 0.0 mm 255.00 W/m2
14:44 21.3 °C 15.4 °C 1020.2 hPa WSW 7.9 km/h 16.1 km/h 69% 0.0 mm 121.00 W/m2
14:49 21.2 °C 15.1 °C 1020.2 hPa SW 9.7 km/h 19.3 km/h 68% 0.0 mm 74.00 W/m2
14:54 21.1 °C 15.2 °C 1020.2 hPa WSW 20.9 km/h 20.9 km/h 69% 0.0 mm 58.00 W/m2
14:59 20.9 °C 15.0 °C 1020.5 hPa WSW 19.5 km/h 19.3 km/h 69% 0.0 mm 44.00 W/m2
15:04 20.8 °C 15.1 °C 1020.5 hPa West 13.0 km/h 16.1 km/h 70% 0.0 mm 56.00 W/m2
15:09 20.6 °C 15.2 °C 1020.5 hPa SW 1.4 km/h 17.7 km/h 71% 0.0 mm 76.00 W/m2
15:14 20.5 °C 15.1 °C 1020.5 hPa SSW 6.4 km/h 12.9 km/h 71% 0.0 mm 104.00 W/m2
15:19 20.6 °C 15.4 °C 1020.5 hPa SW 7.9 km/h 19.3 km/h 72% 0.0 mm 207.00 W/m2
15:24 20.7 °C 15.5 °C 1020.2 hPa SW 9.7 km/h 12.9 km/h 72% 0.0 mm 322.00 W/m2
15:29 20.8 °C 15.6 °C 1020.2 hPa SW 6.4 km/h 11.3 km/h 72% 0.0 mm 462.00 W/m2
15:34 21.2 °C 15.5 °C 1020.2 hPa SSW 11.1 km/h 16.1 km/h 70% 0.0 mm 434.00 W/m2
15:39 21.3 °C 15.4 °C 1020.2 hPa SW 13.0 km/h 27.4 km/h 69% 0.0 mm 304.00 W/m2
15:44 21.4 °C 15.2 °C 1020.2 hPa SSE 19.5 km/h 27.4 km/h 68% 0.0 mm 183.00 W/m2
15:49 21.2 °C 15.1 °C 1020.2 hPa WNW 6.4 km/h 24.1 km/h 68% 0.0 mm 176.00 W/m2
15:54 21.2 °C 15.1 °C 1020.2 hPa SSW 14.3 km/h 16.1 km/h 68% 0.0 mm 197.00 W/m2
15:59 21.2 °C 15.1 °C 1020.2 hPa SSW 3.2 km/h 22.5 km/h 68% 0.0 mm 192.00 W/m2
16:04 21.3 °C 14.9 °C 1020.2 hPa SW 4.7 km/h 16.1 km/h 67% 0.0 mm 195.00 W/m2
16:09 21.3 °C 14.9 °C 1020.2 hPa West 3.2 km/h 16.1 km/h 67% 0.0 mm 223.00 W/m2
16:14 21.4 °C 14.8 °C 1020.2 hPa SSW 4.7 km/h 11.3 km/h 66% 0.0 mm 394.00 W/m2